Time;durP1;ratioP1;P1;durP2;ratioP2;P2;SDS_P1;SDS_P2;PMS_P1;PMS_P2;Temp;Humidity;BMP_temperature;BMP_pressure;BME280_temperature;BME280_humidity;BME280_pressure;Samples;Min_cycle;Max_cycle;Signal;HPM_P1;HPM_P2
2021/10/07 06:22:58;;;;;;;4.15;2.83;;;11.60;99.90;;;;;;4967868;28;21146;-55
2021/10/07 06:25:24;;;;;;;2.65;2.42;;;11.60;99.90;;;;;;4951652;28;20198;-54
2021/10/07 06:27:51;;;;;;;4.20;2.60;;;11.80;99.90;;;;;;4949607;28;20221;-56
2021/10/07 06:30:18;;;;;;;2.90;2.70;;;11.90;99.90;;;;;;4940276;28;20183;-53
2021/10/07 06:32:44;;;;;;;2.80;2.47;;;11.80;99.90;;;;;;4946372;28;20189;-53
2021/10/07 06:35:11;;;;;;;2.75;2.47;;;12.20;99.90;;;;;;4945011;28;20204;-54
2021/10/07 06:37:36;;;;;;;3.20;2.42;;;12.20;99.90;;;;;;4945583;28;20186;-54
2021/10/07 06:40:04;;;;;;;4.40;2.63;;;12.10;99.90;;;;;;4949805;28;20522;-55
2021/10/07 06:42:30;;;;;;;2.95;2.25;;;12.40;99.90;;;;;;4953254;28;20734;-55
2021/10/07 06:44:56;;;;;;;2.90;2.27;;;12.20;99.90;;;;;;4949506;28;20176;-55
2021/10/07 06:47:21;;;;;;;2.57;2.37;;;12.40;99.90;;;;;;4948849;28;20221;-54
2021/10/07 06:49:47;;;;;;;2.87;2.67;;;12.30;99.90;;;;;;4946337;28;20284;-53
2021/10/07 06:52:12;;;;;;;3.57;2.80;;;12.30;99.90;;;;;;4954275;28;20192;-55
2021/10/07 06:54:38;;;;;;;3.50;3.20;;;12.60;99.90;;;;;;4938850;28;20784;-55
2021/10/07 06:57:04;;;;;;;3.20;2.90;;;12.60;99.90;;;;;;4948067;28;20187;-55
2021/10/07 06:59:29;;;;;;;4.03;3.10;;;12.70;99.90;;;;;;4946367;28;20239;-53
2021/10/07 07:01:55;;;;;;;5.33;3.60;;;12.60;99.90;;;;;;4952783;28;20287;-54
2021/10/07 07:04:21;;;;;;;5.23;3.43;;;12.70;99.90;;;;;;4950515;28;20262;-53
2021/10/07 07:06:48;;;;;;;3.77;3.07;;;12.70;99.90;;;;;;4946356;28;20196;-53
2021/10/07 07:09:13;;;;;;;3.85;3.55;;;12.70;99.90;;;;;;4949347;28;20217;-52
2021/10/07 07:11:39;;;;;;;4.70;3.30;;;13.20;99.90;;;;;;4951043;28;20196;-54
2021/10/07 07:14:08;;;;;;;3.30;3.00;;;12.90;99.90;;;;;;4947069;28;20271;-54
2021/10/07 07:16:34;;;;;;;5.22;3.15;;;13.10;99.90;;;;;;4947697;28;20623;-55
2021/10/07 07:19:00;;;;;;;4.15;3.63;;;13.30;99.90;;;;;;4948680;28;20616;-53
2021/10/07 07:21:30;;;;;;;3.35;3.08;;;13.00;99.90;;;;;;4954738;28;20249;-55
2021/10/07 07:23:58;;;;;;;4.45;3.80;;;13.30;99.90;;;;;;4965482;28;20192;-54
2021/10/07 07:26:24;;;;;;;4.30;3.92;;;13.30;99.90;;;;;;4966244;28;20215;-54
2021/10/07 07:28:50;;;;;;;4.20;3.90;;;13.20;99.90;;;;;;4967403;28;20213;-53
2021/10/07 07:31:17;;;;;;;8.68;4.25;;;13.50;99.90;;;;;;4969065;28;20641;-53
2021/10/07 07:33:46;;;;;;;4.43;3.25;;;13.40;99.90;;;;;;4958030;28;20192;-54
2021/10/07 07:36:13;;;;;;;4.57;3.83;;;13.40;99.90;;;;;;4953465;28;20181;-54
2021/10/07 07:38:38;;;;;;;4.25;3.90;;;13.50;99.90;;;;;;4949586;28;20229;-55
2021/10/07 07:41:04;;;;;;;4.77;4.37;;;13.40;99.90;;;;;;4950367;28;20622;-54
2021/10/07 07:43:30;;;;;;;5.40;4.93;;;13.30;99.90;;;;;;4954740;28;20185;-53
2021/10/07 07:45:55;;;;;;;4.80;4.40;;;13.30;99.90;;;;;;4951303;28;20189;-54
2021/10/07 07:48:21;;;;;;;7.83;4.87;;;13.40;99.90;;;;;;4955795;28;20204;-55
2021/10/07 07:50:47;;;;;;;6.23;4.63;;;13.60;99.90;;;;;;4962440;28;20211;-55
2021/10/07 07:53:13;;;;;;;5.13;4.30;;;13.40;99.90;;;;;;4953036;28;20189;-55
2021/10/07 07:55:39;;;;;;;6.53;4.97;;;13.80;99.90;;;;;;4957549;28;20189;-55
2021/10/07 07:58:05;;;;;;;7.60;5.78;;;13.70;99.90;;;;;;4956780;28;20218;-54
2021/10/07 08:00:30;;;;;;;5.40;4.90;;;13.60;99.90;;;;;;4953208;28;20197;-54
2021/10/07 08:02:56;;;;;;;7.87;5.30;;;13.80;99.90;;;;;;4953511;28;20343;-54
2021/10/07 08:05:22;;;;;;;5.97;5.37;;;13.80;99.90;;;;;;4953173;29;20181;-53
2021/10/07 08:07:48;;;;;;;7.53;6.03;;;13.90;99.90;;;;;;4955894;28;20223;-54
2021/10/07 08:10:14;;;;;;;6.27;5.67;;;13.90;99.90;;;;;;4952080;28;20193;-54
2021/10/07 08:12:40;;;;;;;6.07;5.63;;;13.80;99.90;;;;;;4953966;28;20185;-53
2021/10/07 08:15:07;;;;;;;6.70;6.10;;;13.80;99.90;;;;;;4947950;28;20203;-54
2021/10/07 08:17:34;;;;;;;7.85;6.32;;;13.70;99.90;;;;;;4955157;28;20184;-55
2021/10/07 08:20:01;;;;;;;7.45;6.20;;;13.70;99.90;;;;;;4952513;28;20291;-53
2021/10/07 08:22:27;;;;;;;8.48;6.55;;;13.30;99.90;;;;;;4957186;28;20219;-54
2021/10/07 08:24:53;;;;;;;6.60;6.00;;;13.70;99.90;;;;;;4952555;28;20554;-54
2021/10/07 08:27:19;;;;;;;7.15;6.45;;;13.50;99.90;;;;;;4957669;28;20550;-55
2021/10/07 08:29:46;;;;;;;7.53;5.97;;;13.90;99.90;;;;;;4948423;28;20216;-52
2021/10/07 08:32:11;;;;;;;6.57;6.00;;;13.70;99.90;;;;;;4955080;28;20189;-53
2021/10/07 08:34:37;;;;;;;8.10;5.50;;;13.70;99.90;;;;;;4956835;28;20548;-54
2021/10/07 08:37:04;;;;;;;6.20;5.60;;;13.50;99.90;;;;;;4951350;28;20176;-53
2021/10/07 08:39:30;;;;;;;5.78;5.25;;;13.90;99.90;;;;;;4948937;28;20827;-54
2021/10/07 08:41:56;;;;;;;7.65;6.07;;;14.30;99.90;;;;;;4948474;28;20307;-53
2021/10/07 08:44:22;;;;;;;6.40;5.80;;;14.30;99.90;;;;;;4952122;28;20263;-53
2021/10/07 08:46:50;;;;;;;7.05;6.32;;;14.30;99.90;;;;;;4953545;28;20559;-54
2021/10/07 08:49:18;;;;;;;7.45;6.10;;;14.40;99.90;;;;;;4955756;28;20233;-53
2021/10/07 08:51:44;;;;;;;7.43;5.38;;;14.70;99.90;;;;;;4953661;28;20181;-53
2021/10/07 08:54:10;;;;;;;6.80;5.60;;;15.00;99.90;;;;;;4946523;29;20658;-52
2021/10/07 08:56:36;;;;;;;6.70;5.90;;;15.30;99.90;;;;;;4951424;28;20196;-52
2021/10/07 08:59:04;;;;;;;6.77;5.93;;;15.30;99.90;;;;;;4952286;28;20208;-53
2021/10/07 09:01:39;;;;;;;6.43;5.93;;;15.40;99.90;;;;;;4949123;28;20464;-53
2021/10/07 09:04:24;;;;;;;7.82;5.95;;;15.50;99.90;;;;;;4952038;29;20180;-52
2021/10/07 09:06:58;;;;;;;6.85;6.28;;;15.50;99.90;;;;;;4953759;28;20188;-52
2021/10/07 09:09:25;;;;;;;6.70;6.00;;;15.90;99.90;;;;;;4955002;28;20576;-53
2021/10/07 09:11:55;;;;;;;7.68;6.68;;;16.00;99.90;;;;;;4949003;28;20193;-53
2021/10/07 09:14:28;;;;;;;6.15;5.55;;;15.90;99.90;;;;;;4949406;29;20622;-53
2021/10/07 09:16:55;;;;;;;6.95;6.25;;;15.70;99.90;;;;;;4949118;28;20666;-53
2021/10/07 09:19:32;;;;;;;18.80;14.88;;;15.50;99.90;;;;;;4951639;28;21644;-53
2021/10/07 09:22:12;;;;;;;12.57;10.65;;;15.90;99.90;;;;;;4946375;28;20231;-53
2021/10/07 09:24:41;;;;;;;40.63;19.33;;;15.80;99.90;;;;;;4945136;28;20301;-54
2021/10/07 09:27:27;;;;;;;15.75;14.15;;;15.90;99.90;;;;;;4951911;29;20615;-53
2021/10/07 09:30:07;;;;;;;24.45;13.60;;;15.80;99.90;;;;;;4949394;28;20574;-52
2021/10/07 09:32:46;;;;;;;10.20;8.35;;;15.70;99.90;;;;;;4949715;28;20189;-54
2021/10/07 09:35:15;;;;;;;15.25;9.35;;;15.70;99.90;;;;;;4952339;28;20251;-54
2021/10/07 09:37:47;;;;;;;7.18;6.57;;;15.80;99.90;;;;;;4952451;28;20201;-54
2021/10/07 09:40:17;;;;;;;8.63;7.70;;;15.70;99.90;;;;;;4944097;28;20189;-55
2021/10/07 09:42:46;;;;;;;8.52;7.63;;;15.50;99.90;;;;;;4951055;28;20346;-54
2021/10/07 09:45:17;;;;;;;8.82;7.05;;;15.10;99.90;;;;;;4947521;28;20674;-53
2021/10/07 09:48:02;;;;;;;8.82;7.93;;;15.40;99.90;;;;;;4948811;28;20239;-53
2021/10/07 09:50:32;;;;;;;9.73;8.52;;;15.10;99.90;;;;;;4963744;28;20196;-54
2021/10/07 09:53:11;;;;;;;8.10;7.40;;;15.30;99.90;;;;;;4947179;28;20622;-53
2021/10/07 09:55:44;;;;;;;7.63;6.82;;;15.20;99.90;;;;;;4947312;28;20207;-52
2021/10/07 09:58:17;;;;;;;7.60;7.00;;;15.50;99.90;;;;;;4948739;28;20209;-52
2021/10/07 10:00:46;;;;;;;7.35;6.60;;;15.20;99.90;;;;;;4948884;29;20173;-53
2021/10/07 10:03:14;;;;;;;19.17;17.35;;;15.30;99.90;;;;;;4948255;28;20611;-54
2021/10/07 10:05:41;;;;;;;19.70;10.10;;;15.40;99.90;;;;;;4953733;28;20251;-55
2021/10/07 10:08:09;;;;;;;7.80;7.00;;;15.10;99.90;;;;;;4951717;28;20717;-53
2021/10/07 10:10:37;;;;;;;11.00;8.18;;;15.20;99.90;;;;;;4944995;28;20188;-54
2021/10/07 10:13:04;;;;;;;16.23;10.73;;;15.40;99.90;;;;;;4949731;28;20583;-52
2021/10/07 10:15:30;;;;;;;8.68;7.88;;;15.50;99.90;;;;;;4951045;28;20197;-53
2021/10/07 10:17:55;;;;;;;9.93;8.85;;;15.60;99.90;;;;;;4946004;28;20209;-52
2021/10/07 10:20:27;;;;;;;9.50;8.60;;;15.80;99.90;;;;;;4952133;28;20212;-53
2021/10/07 10:23:05;;;;;;;10.43;9.40;;;15.90;99.90;;;;;;4951453;28;20518;-53
2021/10/07 10:25:49;;;;;;;9.43;8.63;;;16.00;99.70;;;;;;4952373;28;20188;-53
2021/10/07 10:28:15;;;;;;;10.60;8.63;;;16.00;99.50;;;;;;4948075;28;20209;-52
2021/10/07 10:30:46;;;;;;;7.57;6.90;;;15.80;99.50;;;;;;4949504;28;20183;-56
2021/10/07 10:33:29;;;;;;;8.45;7.50;;;15.90;99.80;;;;;;4951703;28;20256;-55
2021/10/07 10:35:55;;;;;;;6.97;6.28;;;15.80;99.40;;;;;;4950640;28;20185;-52
2021/10/07 10:38:21;;;;;;;10.50;9.50;;;16.10;98.90;;;;;;4950635;28;20566;-54
2021/10/07 10:40:47;;;;;;;8.23;6.03;;;16.00;98.40;;;;;;4951278;28;20209;-53
2021/10/07 10:43:18;;;;;;;7.07;5.67;;;16.10;98.60;;;;;;4954302;28;20224;-53
2021/10/07 10:46:09;;;;;;;7.72;6.25;;;15.90;98.60;;;;;;4953644;28;20180;-52
2021/10/07 10:48:40;;;;;;;6.70;6.00;;;15.80;98.80;;;;;;4939360;28;20741;-55
2021/10/07 10:51:10;;;;;;;6.82;6.13;;;16.00;98.90;;;;;;4946601;28;20784;-53
2021/10/07 10:53:58;;;;;;;7.75;6.97;;;15.80;99.40;;;;;;4953631;28;20560;-55
2021/10/07 10:56:23;;;;;;;7.13;6.43;;;15.40;99.90;;;;;;4953392;28;20193;-54
2021/10/07 10:58:53;;;;;;;9.90;8.20;;;15.50;99.90;;;;;;4944333;28;20727;-54
2021/10/07 11:01:19;;;;;;;29.75;22.42;;;15.90;99.90;;;;;;4942427;29;20464;-55
2021/10/07 11:03:46;;;;;;;9.63;8.30;;;16.00;99.60;;;;;;4948237;28;20264;-54
2021/10/07 11:06:12;;;;;;;14.85;11.02;;;16.10;99.90;;;;;;4961739;28;20176;-56
2021/10/07 11:08:40;;;;;;;10.82;8.60;;;16.40;99.40;;;;;;4942955;28;20266;-55
2021/10/07 11:11:22;;;;;;;7.93;7.22;;;16.50;99.10;;;;;;4956823;28;20558;-55
2021/10/07 11:13:48;;;;;;;7.25;6.65;;;16.60;98.60;;;;;;4954344;28;20192;-56
2021/10/07 11:16:17;;;;;;;8.32;7.53;;;16.30;98.50;;;;;;4954691;28;20550;-55
2021/10/07 11:18:44;;;;;;;11.32;8.60;;;16.40;99.00;;;;;;4953927;28;20200;-55
2021/10/07 11:21:16;;;;;;;7.95;7.15;;;16.10;99.00;;;;;;4946914;28;20225;-55
2021/10/07 11:23:52;;;;;;;10.23;6.75;;;16.40;99.10;;;;;;4946685;28;20185;-55
2021/10/07 11:26:19;;;;;;;7.20;6.50;;;16.50;98.70;;;;;;4955282;28;20197;-55
2021/10/07 11:28:47;;;;;;;7.00;6.40;;;16.20;98.20;;;;;;4953396;28;20260;-55
2021/10/07 11:31:21;;;;;;;9.50;8.60;;;16.50;98.40;;;;;;4952773;28;20189;-55
2021/10/07 11:33:51;;;;;;;7.00;6.22;;;16.60;98.30;;;;;;4953825;28;20204;-54
2021/10/07 11:36:19;;;;;;;6.32;5.72;;;16.50;97.60;;;;;;4952140;28;20185;-54
2021/10/07 11:38:47;;;;;;;6.90;6.25;;;16.30;98.30;;;;;;4947111;29;20217;-54
2021/10/07 11:41:15;;;;;;;7.10;6.40;;;16.20;99.00;;;;;;4951935;28;20228;-53
2021/10/07 11:43:43;;;;;;;6.57;6.00;;;16.30;99.30;;;;;;4955098;28;20185;-54
2021/10/07 11:46:17;;;;;;;6.47;5.97;;;16.40;98.60;;;;;;4948118;28;20190;-55
2021/10/07 11:48:45;;;;;;;6.22;5.63;;;16.20;98.80;;;;;;4953426;28;20209;-53
2021/10/07 11:51:11;;;;;;;6.38;5.60;;;15.80;99.50;;;;;;4956104;28;20196;-53
2021/10/07 11:53:43;;;;;;;6.10;5.50;;;16.30;99.50;;;;;;4947588;29;20188;-52
2021/10/07 11:56:36;;;;;;;6.20;4.80;;;16.30;98.40;;;;;;4950447;29;20196;-54
2021/10/07 11:59:06;;;;;;;4.95;4.55;;;16.60;97.70;;;;;;4952217;28;20224;-52
2021/10/07 12:01:35;;;;;;;6.28;5.75;;;16.40;97.30;;;;;;4952770;28;20209;-54
2021/10/07 12:04:03;;;;;;;5.50;5.03;;;16.40;97.40;;;;;;4955976;28;20197;-52
2021/10/07 12:06:34;;;;;;;6.18;5.20;;;16.30;97.70;;;;;;4952625;28;20196;-52
2021/10/07 12:09:01;;;;;;;7.13;5.82;;;16.60;97.90;;;;;;4942470;28;20698;-53
2021/10/07 12:11:28;;;;;;;8.55;7.65;;;16.60;97.40;;;;;;4957364;28;20196;-54
2021/10/07 12:13:59;;;;;;;6.55;6.05;;;16.80;97.60;;;;;;4953801;28;20185;-53
2021/10/07 12:16:31;;;;;;;6.07;5.47;;;17.00;96.80;;;;;;4948875;28;20188;-53
2021/10/07 12:19:01;;;;;;;5.72;5.22;;;16.90;96.90;;;;;;4951253;28;20219;-52
2021/10/07 12:21:34;;;;;;;5.80;5.18;;;16.70;96.70;;;;;;4952588;29;20209;-53
2021/10/07 12:24:02;;;;;;;6.70;5.35;;;16.80;96.90;;;;;;4952024;28;20284;-54
2021/10/07 12:26:50;;;;;;;6.47;5.88;;;16.80;96.60;;;;;;4954868;28;20578;-53
2021/10/07 12:29:18;;;;;;;6.10;5.60;;;16.80;97.00;;;;;;4950032;28;20228;-54
2021/10/07 12:32:00;;;;;;;6.57;5.10;;;16.80;96.90;;;;;;4954770;28;20732;-54
2021/10/07 12:34:46;;;;;;;7.00;5.00;;;16.70;96.80;;;;;;4950542;28;20227;-54
2021/10/07 12:37:16;;;;;;;4.80;4.40;;;16.70;97.00;;;;;;4955021;28;20196;-54
2021/10/07 12:39:44;;;;;;;7.25;6.30;;;16.90;96.70;;;;;;4949624;28;20261;-54
2021/10/07 12:42:20;;;;;;;6.80;4.40;;;16.90;97.10;;;;;;4951845;28;20607;-55
2021/10/07 12:45:01;;;;;;;9.23;6.68;;;16.70;96.80;;;;;;4944177;28;20189;-54
2021/10/07 12:47:34;;;;;;;6.38;5.45;;;16.80;96.50;;;;;;4947606;29;20260;-54
2021/10/07 12:50:06;;;;;;;6.57;5.97;;;16.70;96.90;;;;;;4952044;29;20181;-54
2021/10/07 12:52:41;;;;;;;7.50;6.70;;;16.80;97.30;;;;;;4948861;28;20184;-54
2021/10/07 12:55:15;;;;;;;5.72;5.22;;;16.60;97.10;;;;;;4952252;28;20475;-54
2021/10/07 12:57:51;;;;;;;6.28;5.70;;;16.80;96.70;;;;;;4951926;29;20386;-54
2021/10/07 13:00:28;;;;;;;6.28;5.65;;;17.10;96.40;;;;;;4943844;29;20185;-54
2021/10/07 13:02:58;;;;;;;7.05;5.55;;;17.00;96.50;;;;;;4951241;29;20220;-54
2021/10/07 13:05:26;;;;;;;5.10;4.70;;;17.00;96.80;;;;;;4952334;28;20235;-52
2021/10/07 13:08:00;;;;;;;5.60;5.10;;;17.30;96.40;;;;;;4952001;29;20213;-54
2021/10/07 13:10:30;;;;;;;5.22;4.72;;;16.70;96.90;;;;;;4944898;28;20185;-54
2021/10/07 13:12:56;;;;;;;5.10;4.65;;;16.80;97.00;;;;;;4952122;28;20186;-54
2021/10/07 13:15:22;;;;;;;6.37;5.70;;;16.90;97.10;;;;;;4947592;28;20188;-53
2021/10/07 13:17:47;;;;;;;5.73;4.80;;;16.80;97.00;;;;;;4952041;28;20612;-54
2021/10/07 13:20:14;;;;;;;5.53;4.00;;;16.70;96.80;;;;;;4939503;28;20397;-55
2021/10/07 13:22:41;;;;;;;5.68;5.10;;;16.70;96.70;;;;;;4950044;29;20226;-53
2021/10/07 13:25:12;;;;;;;6.45;4.40;;;16.40;97.30;;;;;;4939456;29;20597;-55
2021/10/07 13:27:40;;;;;;;6.03;5.35;;;16.70;97.90;;;;;;4951375;29;20184;-53
2021/10/07 13:30:06;;;;;;;4.93;4.53;;;16.50;98.00;;;;;;4949829;28;20561;-52
2021/10/07 13:32:32;;;;;;;4.60;4.20;;;16.30;97.10;;;;;;4949382;28;20259;-54
2021/10/07 13:34:58;;;;;;;4.27;3.80;;;16.30;97.60;;;;;;4951383;28;20189;-54
2021/10/07 13:37:24;;;;;;;5.68;5.07;;;16.10;97.40;;;;;;4944775;28;20518;-53
2021/10/07 13:39:50;;;;;;;43.07;30.00;;;16.00;97.80;;;;;;4949112;29;20239;-53
2021/10/07 13:42:15;;;;;;;5.77;5.20;;;16.10;98.30;;;;;;4951538;28;20208;-54
2021/10/07 13:44:41;;;;;;;5.73;4.47;;;15.60;98.70;;;;;;4949071;28;20340;-54
2021/10/07 13:47:08;;;;;;;4.40;4.10;;;16.00;98.60;;;;;;4947349;29;20440;-53
2021/10/07 13:49:34;;;;;;;4.55;4.20;;;16.00;98.30;;;;;;4947777;28;20233;-53
2021/10/07 13:51:59;;;;;;;5.77;4.37;;;15.90;98.70;;;;;;4948770;28;20189;-53
2021/10/07 13:54:30;;;;;;;5.33;4.30;;;15.70;98.40;;;;;;4951460;29;20570;-53
2021/10/07 13:56:57;;;;;;;4.18;3.78;;;16.00;98.60;;;;;;4934174;29;20609;-53
2021/10/07 13:59:22;;;;;;;4.80;4.37;;;16.10;98.40;;;;;;4934891;28;20296;-53
2021/10/07 14:01:48;;;;;;;5.70;3.90;;;15.90;98.20;;;;;;4937236;29;20206;-53
2021/10/07 14:04:14;;;;;;;5.00;4.43;;;16.00;98.70;;;;;;4946470;29;20189;-54
2021/10/07 14:06:40;;;;;;;5.07;3.80;;;16.20;98.50;;;;;;4940835;28;20189;-53
2021/10/07 14:09:06;;;;;;;3.65;3.35;;;16.00;98.10;;;;;;4938243;28;20216;-53
2021/10/07 14:11:34;;;;;;;3.97;3.67;;;16.00;97.90;;;;;;4949202;28;20189;-53
2021/10/07 14:13:59;;;;;;;5.85;5.35;;;16.30;98.20;;;;;;4947716;28;20185;-54
2021/10/07 14:16:25;;;;;;;5.73;4.47;;;15.70;98.70;;;;;;4938833;29;20196;-53
2021/10/07 14:18:51;;;;;;;4.20;3.87;;;15.60;98.90;;;;;;4945438;28;20382;-53
2021/10/07 14:21:17;;;;;;;4.80;4.03;;;15.70;99.00;;;;;;4943188;28;20217;-53
2021/10/07 14:23:44;;;;;;;4.80;4.30;;;15.70;98.60;;;;;;4940021;28;20620;-54
2021/10/07 14:26:11;;;;;;;4.25;3.85;;;16.00;99.30;;;;;;4949818;28;20185;-53
2021/10/07 14:28:37;;;;;;;7.78;4.40;;;16.00;97.90;;;;;;4942307;28;20208;-53
2021/10/07 14:31:03;;;;;;;6.47;3.88;;;16.50;96.80;;;;;;4941893;29;20205;-54
2021/10/07 14:33:29;;;;;;;4.07;3.75;;;16.70;96.20;;;;;;4950947;28;20181;-53
2021/10/07 14:35:55;;;;;;;3.65;3.35;;;16.90;95.80;;;;;;4952199;28;20181;-52
2021/10/07 14:38:21;;;;;;;3.43;3.13;;;16.60;95.50;;;;;;4947450;28;20210;-53
2021/10/07 14:40:47;;;;;;;3.42;3.20;;;16.50;95.90;;;;;;4950926;29;20611;-53
2021/10/07 14:43:16;;;;;;;3.38;3.08;;;16.60;95.90;;;;;;4952340;28;20288;-53
2021/10/07 14:45:42;;;;;;;2.70;2.50;;;16.60;96.00;;;;;;4948774;28;20248;-53
2021/10/07 14:48:08;;;;;;;2.80;2.42;;;16.60;95.30;;;;;;4954580;28;20287;-53
2021/10/07 14:50:34;;;;;;;2.53;2.33;;;16.70;93.50;;;;;;4950192;28;20276;-53
2021/10/07 14:52:59;;;;;;;2.53;2.33;;;16.30;93.80;;;;;;4954538;29;20264;-53
2021/10/07 14:55:25;;;;;;;2.67;2.47;;;16.30;93.60;;;;;;4945957;28;20495;-53
2021/10/07 14:57:51;;;;;;;2.53;2.27;;;16.30;93.70;;;;;;4955117;29;20663;-53
2021/10/07 15:00:18;;;;;;;3.20;2.67;;;16.30;94.00;;;;;;4945646;28;20264;-53
2021/10/07 15:02:43;;;;;;;3.47;2.65;;;16.10;93.70;;;;;;4950648;28;20223;-54
2021/10/07 15:05:12;;;;;;;2.60;2.40;;;16.20;94.10;;;;;;4953828;28;20224;-53
2021/10/07 15:07:38;;;;;;;4.40;3.03;;;15.70;94.10;;;;;;4953630;28;20204;-52
2021/10/07 15:10:06;;;;;;;3.25;3.00;;;15.90;94.40;;;;;;4950460;28;20690;-53
2021/10/07 15:12:34;;;;;;;6.85;3.65;;;15.90;94.90;;;;;;4958440;28;20192;-53
2021/10/07 15:15:00;;;;;;;4.15;3.83;;;15.40;95.20;;;;;;4952804;28;20263;-53
2021/10/07 15:17:26;;;;;;;3.90;3.40;;;15.60;95.80;;;;;;4952309;28;20887;-53
2021/10/07 15:19:52;;;;;;;4.80;4.33;;;15.70;96.00;;;;;;4950902;28;20506;-54
2021/10/07 15:22:20;;;;;;;3.30;3.10;;;15.60;96.00;;;;;;4955398;28;20244;-53
2021/10/07 15:24:46;;;;;;;4.00;3.70;;;15.80;95.90;;;;;;4950064;28;20177;-54
2021/10/07 15:27:11;;;;;;;3.50;3.15;;;15.80;96.30;;;;;;4953715;28;20208;-53
2021/10/07 15:29:37;;;;;;;3.60;3.07;;;15.80;96.10;;;;;;4951529;28;20662;-53
2021/10/07 15:32:05;;;;;;;3.30;3.10;;;15.90;95.90;;;;;;4953881;28;20189;-52
2021/10/07 15:34:31;;;;;;;3.40;3.10;;;15.80;95.50;;;;;;4950294;29;20603;-53
2021/10/07 15:36:57;;;;;;;3.10;2.80;;;16.10;95.70;;;;;;4952666;29;20598;-52
2021/10/07 15:39:24;;;;;;;3.20;2.90;;;16.00;95.40;;;;;;4948046;28;20208;-53
2021/10/07 15:41:51;;;;;;;3.00;2.80;;;16.10;95.60;;;;;;4953455;28;20765;-52
2021/10/07 15:44:17;;;;;;;3.65;3.35;;;16.30;95.30;;;;;;4959357;28;20275;-54
2021/10/07 15:46:43;;;;;;;3.80;3.05;;;15.90;95.50;;;;;;4949965;28;20279;-54
2021/10/07 15:49:08;;;;;;;3.30;3.10;;;16.00;95.50;;;;;;4953239;28;20705;-54
2021/10/07 15:51:34;;;;;;;4.00;3.20;;;16.30;96.10;;;;;;4952535;28;20181;-54
2021/10/07 15:54:00;;;;;;;4.77;3.30;;;16.30;95.80;;;;;;4950802;28;20649;-54
2021/10/07 15:56:25;;;;;;;3.07;2.87;;;16.10;95.90;;;;;;4953403;28;20533;-54
2021/10/07 15:58:51;;;;;;;3.80;3.50;;;16.10;96.60;;;;;;4953069;29;20295;-54
2021/10/07 16:01:21;;;;;;;4.10;3.53;;;16.00;96.50;;;;;;4951424;28;20429;-54
2021/10/07 16:03:46;;;;;;;3.40;3.10;;;15.90;96.20;;;;;;4953638;29;20181;-54
2021/10/07 16:06:12;;;;;;;3.00;2.70;;;15.90;95.60;;;;;;4953427;29;20207;-54
2021/10/07 16:08:38;;;;;;;3.87;3.50;;;15.80;95.50;;;;;;4947383;29;20205;-54
2021/10/07 16:11:05;;;;;;;2.70;2.50;;;15.90;95.40;;;;;;4952849;29;20192;-54
2021/10/07 16:13:31;;;;;;;4.10;3.33;;;15.80;95.70;;;;;;4954526;28;20176;-54
2021/10/07 16:15:57;;;;;;;3.20;2.90;;;15.60;96.20;;;;;;4945305;28;20276;-54
2021/10/07 16:18:24;;;;;;;3.30;3.00;;;15.80;95.90;;;;;;4946347;28;20460;-54
2021/10/07 16:20:51;;;;;;;4.95;2.67;;;15.80;95.80;;;;;;4941909;29;20256;-54
2021/10/07 16:23:17;;;;;;;2.70;2.50;;;15.70;95.90;;;;;;4944126;29;20618;-54
2021/10/07 16:25:45;;;;;;;3.75;2.10;;;15.60;95.50;;;;;;4945194;28;20269;-54
2021/10/07 16:28:12;;;;;;;4.00;3.60;;;15.90;95.90;;;;;;4951389;28;20245;-54
2021/10/07 16:30:40;;;;;;;4.20;3.00;;;15.80;95.90;;;;;;4950615;29;20224;-54
2021/10/07 16:33:06;;;;;;;2.33;2.22;;;15.70;96.20;;;;;;4950928;28;20255;-54
2021/10/07 16:35:32;;;;;;;2.35;2.15;;;15.70;95.70;;;;;;4952539;28;20239;-54
2021/10/07 16:37:58;;;;;;;2.87;2.67;;;15.40;96.10;;;;;;4945582;28;20245;-54
2021/10/07 16:40:24;;;;;;;3.03;2.60;;;15.40;96.20;;;;;;4948406;29;20452;-54
2021/10/07 16:42:50;;;;;;;2.25;2.05;;;15.60;96.10;;;;;;4950406;29;20221;-55
2021/10/07 16:45:16;;;;;;;2.60;2.40;;;15.20;95.90;;;;;;4946073;28;20189;-54
2021/10/07 16:47:42;;;;;;;2.70;2.50;;;15.10;96.20;;;;;;4952855;28;20452;-53
2021/10/07 16:50:10;;;;;;;2.57;2.27;;;15.50;96.70;;;;;;4951588;29;20589;-53
2021/10/07 16:52:36;;;;;;;3.55;2.70;;;15.40;96.70;;;;;;4948180;29;20522;-52
2021/10/07 16:55:03;;;;;;;2.88;2.65;;;15.40;96.80;;;;;;4949703;28;20518;-53
2021/10/07 16:57:28;;;;;;;3.00;2.80;;;15.30;96.90;;;;;;4947532;28;20575;-54
2021/10/07 16:59:54;;;;;;;3.13;2.83;;;15.10;97.30;;;;;;4944342;28;20208;-54
2021/10/07 17:02:20;;;;;;;2.87;2.53;;;15.30;97.60;;;;;;4944734;28;20231;-55
2021/10/07 17:04:45;;;;;;;3.27;3.07;;;15.00;97.80;;;;;;4951775;28;20647;-54
2021/10/07 17:07:11;;;;;;;3.40;2.53;;;15.40;97.90;;;;;;4949745;29;20188;-54
2021/10/07 17:09:37;;;;;;;3.20;2.97;;;15.10;97.90;;;;;;4945918;28;20200;-53
2021/10/07 17:12:05;;;;;;;2.93;2.70;;;15.00;98.00;;;;;;4952276;28;20185;-54
2021/10/07 17:14:33;;;;;;;3.08;2.70;;;14.90;98.10;;;;;;4949306;29;20265;-54
2021/10/07 17:16:59;;;;;;;2.47;2.28;;;14.90;98.40;;;;;;4951248;28;20303;-54
2021/10/07 17:19:25;;;;;;;3.53;3.10;;;14.90;99.00;;;;;;4952159;28;20290;-53
2021/10/07 17:21:51;;;;;;;2.78;2.50;;;14.90;99.30;;;;;;4955002;28;20305;-54
2021/10/07 17:24:17;;;;;;;5.07;2.90;;;14.80;99.60;;;;;;4952740;28;20192;-54
2021/10/07 17:26:42;;;;;;;2.57;2.37;;;15.00;99.90;;;;;;4958579;28;20195;-54
2021/10/07 17:29:08;;;;;;;2.63;2.43;;;14.70;99.90;;;;;;4963958;28;20212;-54
2021/10/07 17:31:34;;;;;;;2.93;2.73;;;14.60;99.90;;;;;;4959358;28;20212;-54
2021/10/07 17:33:59;;;;;;;3.13;2.83;;;14.40;99.90;;;;;;4950508;28;20188;-54
2021/10/07 17:36:26;;;;;;;2.50;2.30;;;14.60;99.90;;;;;;4950526;28;20187;-54
2021/10/07 17:38:51;;;;;;;3.42;2.60;;;14.40;99.90;;;;;;4952732;28;20620;-54
2021/10/07 17:41:18;;;;;;;4.97;3.20;;;14.40;99.90;;;;;;4942178;28;20215;-54
2021/10/07 17:43:46;;;;;;;3.58;3.28;;;14.20;99.90;;;;;;4951756;28;20316;-54
2021/10/07 17:46:11;;;;;;;3.55;3.10;;;14.30;99.90;;;;;;4945058;28;20650;-54
2021/10/07 17:48:37;;;;;;;3.40;3.10;;;14.20;99.90;;;;;;4951609;28;20201;-54
2021/10/07 17:51:03;;;;;;;4.27;3.87;;;14.20;99.90;;;;;;4948145;28;20263;-54
2021/10/07 17:53:28;;;;;;;5.03;3.63;;;14.20;99.90;;;;;;4948456;28;20553;-54
2021/10/07 17:55:54;;;;;;;4.33;3.87;;;14.10;99.90;;;;;;4945116;28;20189;-54
2021/10/07 17:58:20;;;;;;;4.40;3.93;;;13.90;99.90;;;;;;4945689;28;20201;-54
2021/10/07 18:00:45;;;;;;;4.53;3.30;;;13.90;99.90;;;;;;4945549;28;20267;-55
2021/10/07 18:03:11;;;;;;;6.00;5.40;;;13.90;99.90;;;;;;4950123;28;20223;-54
2021/10/07 18:05:37;;;;;;;4.70;4.10;;;14.00;99.90;;;;;;4952240;28;20189;-55
2021/10/07 18:08:03;;;;;;;3.27;2.97;;;13.90;99.90;;;;;;4951173;28;20345;-55
2021/10/07 18:10:29;;;;;;;3.80;3.50;;;13.80;99.90;;;;;;4947351;28;20539;-55
2021/10/07 18:12:55;;;;;;;3.53;3.20;;;13.70;99.90;;;;;;4958182;28;20443;-55
2021/10/07 18:15:21;;;;;;;2.90;2.70;;;13.60;99.90;;;;;;4945336;29;20492;-56
2021/10/07 18:17:47;;;;;;;3.00;2.70;;;13.50;99.90;;;;;;4959816;28;20316;-56
2021/10/07 18:20:13;;;;;;;2.60;2.40;;;13.50;99.90;;;;;;4955948;28;20195;-54
2021/10/07 18:22:43;;;;;;;4.05;2.60;;;13.10;99.90;;;;;;4949099;28;20997;-53
2021/10/07 18:25:10;;;;;;;2.55;2.35;;;13.50;99.90;;;;;;4944868;29;20222;-55
2021/10/07 18:27:36;;;;;;;5.60;3.35;;;13.10;99.90;;;;;;4951176;28;20180;-55
2021/10/07 18:30:03;;;;;;;4.93;2.50;;;12.90;99.90;;;;;;4949754;28;20198;-54
2021/10/07 18:32:28;;;;;;;2.70;2.50;;;13.10;99.90;;;;;;4941568;29;20219;-53
2021/10/07 18:34:54;;;;;;;2.93;2.73;;;13.10;99.90;;;;;;4948013;29;20265;-52
2021/10/07 18:37:20;;;;;;;8.02;2.53;;;12.80;99.90;;;;;;4945054;29;20184;-54
2021/10/07 18:39:46;;;;;;;4.17;2.73;;;12.70;99.90;;;;;;4954719;28;20294;-54
2021/10/07 18:42:12;;;;;;;4.32;2.20;;;12.90;99.90;;;;;;4950054;29;20214;-53
2021/10/07 18:44:38;;;;;;;3.60;2.60;;;12.80;99.90;;;;;;4950184;28;20555;-53
2021/10/07 18:47:03;;;;;;;4.40;3.00;;;12.90;99.90;;;;;;4951594;28;20943;-54
2021/10/07 18:49:31;;;;;;;3.20;2.87;;;12.50;99.90;;;;;;4954700;28;20214;-54
2021/10/07 18:51:58;;;;;;;10.40;9.18;;;12.40;99.90;;;;;;4951513;28;20191;-54
2021/10/07 18:54:23;;;;;;;8.27;7.30;;;12.40;99.90;;;;;;4952385;28;20681;-53
2021/10/07 18:56:49;;;;;;;5.80;4.30;;;12.30;99.90;;;;;;4949771;28;20197;-53
2021/10/07 18:59:16;;;;;;;5.03;4.20;;;12.10;99.90;;;;;;4945178;29;20263;-53
2021/10/07 19:01:43;;;;;;;4.00;3.63;;;12.10;99.90;;;;;;4949205;28;20263;-54
2021/10/07 19:04:09;;;;;;;4.55;4.15;;;12.10;99.90;;;;;;4951074;29;20599;-54
2021/10/07 19:06:35;;;;;;;5.90;4.17;;;12.20;99.90;;;;;;4952135;28;20220;-54
2021/10/07 19:09:06;;;;;;;3.83;3.47;;;12.00;99.90;;;;;;4950140;28;20202;-54
2021/10/07 19:11:32;;;;;;;4.93;4.25;;;12.00;99.90;;;;;;4951322;28;20233;-54